Farnborough, Britanniarum Regnum

10:47 PM GMT die 31o October, anno 2014 (GMT +0000)
IHANTSFA2 | Change Station
CLOSE
Current Station
Personal Weather Stations
Location: Farnborough, HANTS
Elevation: 223 ft
Nearby Weather Stations

Elev 223 ft 51.29 °N, 0.77 °W | Updated 2 minutes ago

Clear
Serena
60.3 °F
Feels Like 60.3 °F
N
0.9
Ventus Variabilis Ventus from Magis Zephyrus quam Auster
Gusts 4.5 mph

Hodie
High -- | Low -- °F
--% Chance of Precip.
Yesterday
High -- | Low -- °F
Precip. -- in
6:53 AM 4:38 PM
First Quarter, 59% visible
Pressio 29.95 in
Visibilitas -9999.0 milia passuum
Clouds
Frigus in quo Ros apparet 55 °F
Umor 84%
Rainfall 0.00 in
Snow Depth Not available.
UV Not available.
Pollen Not available.
Air Quality Not available.
Flu Activity Not available.
METAR EGVO 312150Z 18014KT CAVOK 17/13 Q1014 BLU

More Conditions Fewer Conditions

Pressio 29.95 in
Visibilitas -9999.0 milia passuum
Clouds
Frigus in quo Ros apparet 55 °F
Umor 84%
Rainfall 0.00 in
Snow Depth Not available.
UV Not available.
Pollen Not available.
Air Quality Not available.
Flu Activity Not available.
METAR EGVO 312150Z 18014KT CAVOK 17/13 Q1014 BLU

More Conditions Fewer Conditions

10-Day Weather Forecast

Almanac

Astronomy

Oct. 31, 2014 Rise Set
Actual Time
Civil Twilight
Nautical Twilight
Astronomical Twilight
Moon
Length Of Visible Light
Length of Day
Tomorrow will be .
, % of the Moon is Illuminated

Today's Extremes

Country Highs Country Lows

Community

WunderPhotos

Upload Photos

1,766,770 photos uploaded!

WunderBlogs® & News

Nearby

Air Quality

  Air Quality AQ Index Pollutant
Not available.

Snow Depth

Station Depth Elevation

Earthquake Activity

City Distance Mag. Time & Date
Minimum magnitude displayed is 2.5.

Coastal Water Temperatures

Locus Calor

Nearby Weather Stations